Create Tblcommutelog Verified Points Advance Search
| # | Trip ID | Id Commuter | Trip Date | Trip Num | Current Lat | Current Lng | Delta Distance | Current Time | Activity | Activity Confidence | Current Speed | |
|---|---|---|---|---|---|---|---|---|---|---|---|---|
| 71321 | 250527_785347_16653475_1623 | 785347 | (not set) | (not set) | 39.21822105 | -76.7272925 | 8.4249 | 2025-05-27 20:50:41.344 | in_vehicle | 100 | 5.427056604111 | |
| 71322 | 250527_766077_16632982_1622 | 766077 | (not set) | (not set) | 38.837941454056 | -77.089088302277 | 5.5146 | 2025-05-27 20:50:43.317 | still | 33 | 1.7345123248724 | |
| 71323 | 250527_757722_16624176_1626 | 757722 | (not set) | (not set) | 38.882219422029 | -77.112097161598 | 2.4425 | 2025-05-27 20:50:43.341 | unknown | 100 | 1.676397221204 | |
| 71324 | 250527_785147_16653236_1643 | 785147 | (not set) | (not set) | 38.973045905408 | -77.491415691143 | 4.128 | 2025-05-27 20:50:45.17 | in_vehicle | 100 | 9.7812189866514 | |
| 71325 | 250527_753586_16619764_1602 | 753586 | (not set) | (not set) | 38.898847956082 | -76.996398867389 | 3.784 | 2025-05-27 20:50:46.254 | running | 100 | 1.2830026732948 | |
| 71326 | 250527_776196_16643712_1619 | 776196 | (not set) | (not set) | 39.323932511821 | -77.622572412387 | 15.7499 | 2025-05-27 20:50:48.487 | in_vehicle | 66 | 5.9322109667671 | |
| 71327 | 250527_781975_16649666_1610 | 781975 | (not set) | (not set) | 38.837210573637 | -77.090253162821 | 8.2967 | 2025-05-27 20:50:49.296 | in_vehicle | 100 | 12.253346088854 | |
| 71328 | 250527_777261_16644819_1642 | 777261 | (not set) | (not set) | 38.996758473232 | -76.926094774991 | 1.1192 | 2025-05-27 20:50:50.227 | on_bicycle | 100 | 2.038499020984 | |
| 71329 | 250527_784108_16652594_1621 | 784108 | (not set) | (not set) | 39.157113514082 | -77.226285946554 | 13.791 | 2025-05-27 20:50:51.19 | in_vehicle | 100 | 6.7592335958944 | |
| 71330 | 250527_785347_16653475_1623 | 785347 | (not set) | (not set) | 39.217277033333 | -76.728652566667 | 8.5227 | 2025-05-27 20:50:53.343 | still | 33 | 6.1423194184913 | |
| 71331 | 250527_777261_16644819_1642 | 777261 | (not set) | (not set) | 38.996924938375 | -76.926034201834 | 1.1311 | 2025-05-27 20:50:54.261 | on_bicycle | 100 | 1.8462721396193 | |
| 71332 | 250527_785147_16653236_1643 | 785147 | (not set) | (not set) | 38.970774908108 | -77.491874170801 | 4.2866 | 2025-05-27 20:50:57.323 | in_vehicle | 100 | 9.3654724757928 | |
| 71333 | 250527_781975_16649666_1610 | 781975 | (not set) | (not set) | 38.835957180364 | -77.093448623363 | 8.4895 | 2025-05-27 20:51:00.418 | in_vehicle | 100 | 12.892612229206 | |
| 71334 | 250527_781042_0_1640 | 781042 | (not set) | (not set) | 38.907273841619 | -77.047773603101 | 0.2218 | 2025-05-27 20:51:01.153 | on_foot | 100 | 0.58115103668404 | |
| 71335 | 250527_714474_16576416_1642 | 714474 | (not set) | (not set) | 39.000788631779 | -76.791307998662 | 5.7345 | 2025-05-27 20:51:02.828 | in_vehicle | 100 | 19.942421343442 | |
| 71336 | 250527_785261_16653378_1609 | 785261 | (not set) | (not set) | 38.92953206323 | -77.242059493509 | 13.5599 | 2025-05-27 20:51:03.079 | in_vehicle | 100 | 0 | |
| 71337 | 250527_785261_16653378_1609 | 785261 | (not set) | (not set) | 38.92953206323 | -77.242059493509 | 13.5599 | 2025-05-27 20:51:03.08 | in_vehicle | 100 | 0 | |
| 71338 | 250527_714474_16576416_1642 | 714474 | (not set) | (not set) | 38.997943652615 | -76.796347442244 | 5.3997 | 2025-05-27 20:51:03.265 | in_vehicle | 100 | 20.219585684015 | |
| 71339 | 250527_753838_16620014_1642 | 753838 | (not set) | (not set) | 38.906383324453 | -77.031702702889 | 0.2362 | 2025-05-27 20:51:05.362 | on_foot | 100 | 0.67949967366134 | |
| 71340 | 250527_769852_16636925_1629 | 769852 | (not set) | (not set) | 38.962360401812 | -77.084323955945 | 1.9297 | 2025-05-27 20:51:05.52 | on_bicycle | 100 | -0.44703925898772 |